createdAt,value
2022-08-17T00:01:45.527Z,39.00
2022-08-17T00:04:19.120Z,43.38
2022-08-17T00:06:49.118Z,43.53
2022-08-17T00:09:18.786Z,42.65
2022-08-17T00:12:35.091Z,42.00
2022-08-17T00:14:34.867Z,40.28
2022-08-17T00:17:03.636Z,41.33
2022-08-17T00:19:32.431Z,40.50
2022-08-17T00:22:32.715Z,39.75
2022-08-17T00:24:47.396Z,39.35
2022-08-17T00:27:14.076Z,37.28
2022-08-17T00:29:41.105Z,36.83
2022-08-17T00:33:14.381Z,37.67
2022-08-17T00:34:54.520Z,37.95
2022-08-17T00:37:21.186Z,36.40
2022-08-17T00:39:47.884Z,36.33
2022-08-17T00:42:18.892Z,34.58
2022-08-17T00:44:45.751Z,34.33
2022-08-17T00:47:12.504Z,33.38
2022-08-17T00:49:39.430Z,34.20
2022-08-17T00:52:15.218Z,34.40
2022-08-17T00:54:44.651Z,31.27
2022-08-17T00:57:21.276Z,33.08
2022-08-17T01:00:02.250Z,33.53
2022-08-17T01:02:34.985Z,33.38
2022-08-17T01:05:14.061Z,30.77
2022-08-17T01:07:42.772Z,31.02
2022-08-17T01:10:59.175Z,30.05
2022-08-17T01:13:02.423Z,29.55
2022-08-17T01:15:35.981Z,27.70
2022-08-17T01:18:04.478Z,28.10
2022-08-17T01:20:32.397Z,29.48
2022-08-17T01:23:16.431Z,29.73
2022-08-17T01:25:53.585Z,28.00
2022-08-17T01:28:36.385Z,28.00
2022-08-17T01:31:09.038Z,28.38
2022-08-17T01:33:36.530Z,27.90
2022-08-17T01:36:04.954Z,26.67
2022-08-17T01:38:31.922Z,28.30
2022-08-17T01:41:03.395Z,28.02
2022-08-17T01:46:03.014Z,26.20
2022-08-17T01:48:38.214Z,29.42
2022-08-17T01:51:07.530Z,29.80
2022-08-17T01:53:42.416Z,37.80
2022-08-17T01:56:12.119Z,32.75
2022-08-17T01:58:40.165Z,37.33
2022-08-17T02:01:08.459Z,33.80
2022-08-17T02:03:36.724Z,35.88
2022-08-17T02:06:05.372Z,35.17
2022-08-17T02:08:39.025Z,42.65
2022-08-17T02:11:11.955Z,36.33
2022-08-17T02:13:39.145Z,34.95
2022-08-17T02:16:06.168Z,33.00
2022-08-17T02:18:33.106Z,31.95
2022-08-17T02:21:00.172Z,34.75
2022-08-17T02:23:30.281Z,36.38
2022-08-17T02:25:59.458Z,42.40
2022-08-17T02:28:28.282Z,35.55
2022-08-17T02:31:01.517Z,35.58
2022-08-17T02:33:43.022Z,41.08
2022-08-17T02:36:11.743Z,45.38
2022-08-17T02:38:39.743Z,45.75
2022-08-17T02:41:06.699Z,42.05
2022-08-17T02:43:33.730Z,36.45
2022-08-17T02:46:00.566Z,37.67
2022-08-17T02:48:30.955Z,36.75
2022-08-17T02:50:59.677Z,37.90
2022-08-17T02:53:26.689Z,39.38
2022-08-17T02:55:53.554Z,37.13
2022-08-17T02:58:34.417Z,38.00
2022-08-17T03:01:07.119Z,36.60
2022-08-17T03:06:01.580Z,37.08
2022-08-17T03:08:28.625Z,33.42
2022-08-17T03:10:55.600Z,31.08
2022-08-17T03:13:22.583Z,33.63
2022-08-17T03:15:50.515Z,34.50
2022-08-17T03:18:25.786Z,33.03
2022-08-17T03:20:58.446Z,31.98
2022-08-17T03:23:27.264Z,30.38
2022-08-17T03:25:55.279Z,33.10
2022-08-17T03:28:23.446Z,34.35
2022-08-17T03:30:51.237Z,31.98
2022-08-17T03:33:18.942Z,34.15
2022-08-17T03:35:46.272Z,31.42
2022-08-17T03:38:15.823Z,32.35
2022-08-17T03:40:56.594Z,30.27
2022-08-17T03:43:25.804Z,28.15
2022-08-17T03:46:27.673Z,30.77
2022-08-17T03:49:16.217Z,29.73
2022-08-17T03:52:01.812Z,33.38
2022-08-17T03:54:47.314Z,30.27
2022-08-17T03:57:14.309Z,29.60
2022-08-17T03:59:41.574Z,31.63
2022-08-17T04:02:12.992Z,32.17
2022-08-17T04:07:07.269Z,30.38
2022-08-17T04:09:34.515Z,31.95
2022-08-17T04:12:02.498Z,31.80
2022-08-17T04:14:36.345Z,32.13
2022-08-17T04:17:17.473Z,33.17
2022-08-17T04:19:45.199Z,31.23
2022-08-17T04:22:11.885Z,31.73
2022-08-17T04:24:58.881Z,30.52
2022-08-17T04:27:25.658Z,30.60
2022-08-17T04:29:55.474Z,30.98
2022-08-17T04:33:04.943Z,31.40
2022-08-17T04:35:09.860Z,30.15
2022-08-17T04:37:36.588Z,29.48
2022-08-17T04:40:22.727Z,29.55
2022-08-17T04:43:13.216Z,30.90
2022-08-17T04:45:55.469Z,30.85
2022-08-17T04:48:27.960Z,33.50
2022-08-17T04:51:04.836Z,32.55
2022-08-17T04:53:31.507Z,33.33
2022-08-17T04:55:59.034Z,33.13
2022-08-17T04:58:25.726Z,33.47
2022-08-17T05:00:52.942Z,33.10
2022-08-17T05:03:19.694Z,32.90
2022-08-17T05:05:49.456Z,33.42
2022-08-17T05:08:18.566Z,31.70
2022-08-17T05:10:45.803Z,29.13
2022-08-17T05:13:22.386Z,29.20
2022-08-17T05:15:52.707Z,28.95
2022-08-17T05:18:19.439Z,25.50
2022-08-17T05:20:46.684Z,25.05
2022-08-17T05:23:16.553Z,24.10
2022-08-17T05:25:48.806Z,24.15
2022-08-17T05:28:18.862Z,20.23
2022-08-17T05:30:50.816Z,21.20
2022-08-17T05:33:21.189Z,20.55
2022-08-17T05:35:49.995Z,16.70
2022-08-17T05:38:20.654Z,21.38
2022-08-17T05:40:48.201Z,16.90
2022-08-17T05:43:19.156Z,13.93
2022-08-17T05:46:16.760Z,12.98
2022-08-17T05:48:49.376Z,12.57
2022-08-17T05:51:39.646Z,12.77
2022-08-17T05:54:31.085Z,10.40
2022-08-17T05:57:31.649Z,12.10
2022-08-17T05:59:58.276Z,10.50
2022-08-17T06:02:47.971Z,11.98
2022-08-17T06:05:51.493Z,8.68
2022-08-17T06:08:25.835Z,9.07
2022-08-17T06:11:24.702Z,7.55
2022-08-17T06:14:18.724Z,8.88
2022-08-17T06:16:49.912Z,9.02
2022-08-17T06:19:33.546Z,9.63
2022-08-17T06:22:02.704Z,9.15
2022-08-17T06:24:35.974Z,7.15
2022-08-17T06:27:24.412Z,8.90
2022-08-17T06:30:00.914Z,13.80
2022-08-17T06:32:29.340Z,8.63
2022-08-17T06:34:58.316Z,8.18
2022-08-17T06:38:02.272Z,11.60
2022-08-17T06:40:55.919Z,8.75
2022-08-17T06:43:48.059Z,10.05
2022-08-17T06:46:36.723Z,8.13
2022-08-17T06:49:15.168Z,8.95
2022-08-17T06:51:48.667Z,10.00
2022-08-17T06:54:21.846Z,9.75
2022-08-17T06:57:01.398Z,8.20
2022-08-17T07:00:05.959Z,10.02
2022-08-17T07:03:10.541Z,10.30
2022-08-17T07:05:48.336Z,8.90
2022-08-17T07:08:26.399Z,10.70
2022-08-17T07:11:00.508Z,13.23
2022-08-17T07:13:38.061Z,10.65
2022-08-17T07:16:41.971Z,10.40
2022-08-17T07:19:10.789Z,10.10
2022-08-17T07:21:40.965Z,9.35
2022-08-17T07:24:26.204Z,10.25
2022-08-17T07:27:07.958Z,10.13
2022-08-17T07:29:49.405Z,10.25
2022-08-17T07:35:23.177Z,10.88
2022-08-17T07:38:25.858Z,10.45
2022-08-17T07:41:05.124Z,10.20
2022-08-17T07:43:40.744Z,10.95
2022-08-17T07:46:30.012Z,12.40
2022-08-17T07:49:18.381Z,12.80
2022-08-17T07:51:47.818Z,13.57
2022-08-17T07:54:22.459Z,12.93
2022-08-17T07:57:13.237Z,14.93
2022-08-17T07:59:59.378Z,15.07
2022-08-17T08:02:40.939Z,12.43
2022-08-17T08:05:46.695Z,14.77
2022-08-17T08:08:43.090Z,11.50
2022-08-17T08:11:15.186Z,12.40
2022-08-17T08:13:45.650Z,14.52
2022-08-17T08:16:24.470Z,13.70
2022-08-17T08:18:57.167Z,13.70
2022-08-17T08:21:29.060Z,14.90
2022-08-17T08:24:09.694Z,15.10
2022-08-17T08:27:08.078Z,13.00
2022-08-17T08:29:59.092Z,17.55
2022-08-17T08:32:47.921Z,18.45
2022-08-17T08:35:42.065Z,18.20
2022-08-17T08:38:34.542Z,17.42
2022-08-17T08:41:16.368Z,17.75
2022-08-17T08:44:09.809Z,17.98
2022-08-17T08:47:14.367Z,18.92
2022-08-17T08:50:05.337Z,17.08
2022-08-17T08:52:44.083Z,14.35
2022-08-17T08:55:13.490Z,14.50
2022-08-17T08:57:51.674Z,15.02
2022-08-17T09:00:24.958Z,13.63
2022-08-17T09:03:20.019Z,13.68
2022-08-17T09:06:06.770Z,14.68
2022-08-17T09:09:15.714Z,14.45
2022-08-17T09:12:05.020Z,13.35
2022-08-17T09:14:45.114Z,12.70
2022-08-17T09:17:24.436Z,11.82
2022-08-17T09:20:05.187Z,10.85
2022-08-17T09:22:42.801Z,11.17
2022-08-17T09:25:17.929Z,10.73
2022-08-17T09:27:53.835Z,9.98
2022-08-17T09:30:23.725Z,9.32
2022-08-17T09:33:04.621Z,8.75
2022-08-17T09:35:39.677Z,9.87
2022-08-17T09:38:29.136Z,10.35
2022-08-17T09:41:19.916Z,9.60
2022-08-17T09:43:56.610Z,8.02
2022-08-17T09:46:43.559Z,10.10
2022-08-17T09:49:26.455Z,10.20
2022-08-17T09:52:08.629Z,13.23
2022-08-17T09:54:40.937Z,16.73
2022-08-17T09:57:30.765Z,17.35
2022-08-17T10:00:00.949Z,18.23
2022-08-17T10:02:41.314Z,17.25
2022-08-17T10:05:21.690Z,15.55
2022-08-17T10:08:01.902Z,18.42
2022-08-17T10:10:56.653Z,13.80
2022-08-17T10:14:02.086Z,14.82
2022-08-17T10:17:02.769Z,12.27
2022-08-17T10:19:35.692Z,12.80
2022-08-17T10:22:43.199Z,12.00
2022-08-17T10:25:53.649Z,12.98
2022-08-17T10:28:27.375Z,11.82
2022-08-17T10:31:30.747Z,13.15
2022-08-17T10:34:29.385Z,12.38
2022-08-17T10:37:21.646Z,14.65
2022-08-17T10:39:59.342Z,11.23
2022-08-17T10:42:33.282Z,13.38
2022-08-17T10:45:28.137Z,14.43
2022-08-17T10:48:21.940Z,14.45
2022-08-17T10:51:01.772Z,13.50
2022-08-17T10:53:43.531Z,13.98
2022-08-17T10:56:13.091Z,17.67
2022-08-17T10:59:00.295Z,18.33
2022-08-17T11:01:33.010Z,18.05
2022-08-17T11:04:25.185Z,17.00
2022-08-17T11:07:19.603Z,17.52
2022-08-17T11:10:05.089Z,17.73
2022-08-17T11:12:52.103Z,18.10
2022-08-17T11:15:47.383Z,13.63
2022-08-17T11:18:37.023Z,13.93
2022-08-17T11:21:15.863Z,16.17
2022-08-17T11:24:17.346Z,18.25
2022-08-17T11:27:00.790Z,14.85
2022-08-17T11:29:53.587Z,16.38
2022-08-17T11:32:33.666Z,16.80
2022-08-17T11:35:21.102Z,18.00
2022-08-17T11:38:02.936Z,18.13
2022-08-17T11:41:02.143Z,17.98
2022-08-17T11:43:43.353Z,17.55
2022-08-17T11:46:21.958Z,18.38
2022-08-17T11:49:38.047Z,18.63
2022-08-17T11:52:05.194Z,18.55
2022-08-17T11:54:37.915Z,20.67
2022-08-17T11:57:26.440Z,19.23
2022-08-17T11:59:59.201Z,21.38
2022-08-17T12:02:31.743Z,21.25
2022-08-17T12:05:05.193Z,20.98
2022-08-17T12:07:54.327Z,20.52
2022-08-17T12:10:32.286Z,21.02
2022-08-17T12:13:05.857Z,21.35
2022-08-17T12:15:42.333Z,22.85
2022-08-17T12:18:18.076Z,23.00
2022-08-17T12:20:56.534Z,21.60
2022-08-17T12:23:39.352Z,24.95
2022-08-17T12:26:20.632Z,24.65
2022-08-17T12:28:50.161Z,26.10
2022-08-17T12:31:34.627Z,25.88
2022-08-17T12:34:05.248Z,25.83
2022-08-17T12:36:33.489Z,24.77
2022-08-17T12:39:12.955Z,26.05
2022-08-17T12:41:44.900Z,24.17
2022-08-17T12:44:12.156Z,26.48
2022-08-17T12:46:53.176Z,17.60
2022-08-17T12:49:29.894Z,20.30
2022-08-17T12:52:19.695Z,24.55
2022-08-17T12:55:00.345Z,26.08
2022-08-17T12:57:31.207Z,25.63
2022-08-17T13:00:17.499Z,23.30
2022-08-17T13:02:46.976Z,27.63
2022-08-17T13:05:35.947Z,21.92
2022-08-17T13:08:17.228Z,27.85
2022-08-17T13:10:53.382Z,25.58
2022-08-17T13:13:23.454Z,23.70
2022-08-17T13:16:09.393Z,24.05
2022-08-17T13:18:48.959Z,24.27
2022-08-17T13:21:30.340Z,23.17
2022-08-17T13:24:03.501Z,21.02
2022-08-17T13:26:37.728Z,18.27
2022-08-17T13:29:16.595Z,22.90
2022-08-17T13:31:52.249Z,24.65
2022-08-17T13:34:26.656Z,21.63
2022-08-17T13:37:32.598Z,23.92
2022-08-17T13:40:08.168Z,27.02
2022-08-17T13:42:50.363Z,20.70
2022-08-17T13:45:35.984Z,21.50
2022-08-17T13:48:21.820Z,24.65
2022-08-17T13:50:54.661Z,26.02
2022-08-17T13:53:47.522Z,22.73
2022-08-17T13:56:37.385Z,22.30
2022-08-17T13:59:12.233Z,23.17
2022-08-17T14:01:43.929Z,22.02
2022-08-17T14:04:16.659Z,23.70
2022-08-17T14:06:54.762Z,17.10
2022-08-17T14:09:28.238Z,24.15
2022-08-17T14:11:56.834Z,16.90
2022-08-17T14:14:24.471Z,23.40
2022-08-17T14:16:52.591Z,22.42
2022-08-17T14:19:21.837Z,19.98
2022-08-17T14:21:49.142Z,21.40
2022-08-17T14:24:21.579Z,20.35
2022-08-17T14:26:49.258Z,22.88
2022-08-17T14:29:15.992Z,22.10
2022-08-17T14:31:42.806Z,19.98
2022-08-17T14:34:20.366Z,24.15
2022-08-17T14:36:48.675Z,20.65
2022-08-17T14:39:16.633Z,13.27
2022-08-17T14:41:43.682Z,14.98
2022-08-17T14:44:12.417Z,17.52
2022-08-17T14:46:44.129Z,22.52
2022-08-17T14:49:12.729Z,20.95
2022-08-17T14:51:43.922Z,23.63
2022-08-17T14:54:29.415Z,19.00
2022-08-17T14:57:22.797Z,24.13
2022-08-17T14:59:47.179Z,24.83
2022-08-17T15:02:14.986Z,21.77
2022-08-17T15:04:45.499Z,25.30
2022-08-17T15:07:12.503Z,19.40
2022-08-17T15:09:39.186Z,20.65
2022-08-17T15:12:06.659Z,19.20
2022-08-17T15:14:35.377Z,25.67
2022-08-17T15:17:03.642Z,23.33
2022-08-17T15:19:30.413Z,22.55
2022-08-17T15:21:57.325Z,23.70
2022-08-17T15:24:24.013Z,27.02
2022-08-17T15:26:51.447Z,27.17
2022-08-17T15:29:18.354Z,24.45
2022-08-17T15:31:45.032Z,23.77
2022-08-17T15:34:11.899Z,26.17
2022-08-17T15:36:38.920Z,26.85
2022-08-17T15:39:19.203Z,25.38
2022-08-17T15:41:47.258Z,27.00
2022-08-17T15:44:32.618Z,28.58
2022-08-17T15:47:01.934Z,24.27
2022-08-17T15:49:28.602Z,25.85
2022-08-17T15:51:55.522Z,26.27
2022-08-17T15:54:23.325Z,27.92
2022-08-17T15:56:50.557Z,26.63
2022-08-17T15:59:17.271Z,26.48
2022-08-17T16:03:14.515Z,25.58
2022-08-17T16:04:31.756Z,24.50
2022-08-17T16:06:59.660Z,28.50
2022-08-17T16:09:26.882Z,28.05
2022-08-17T16:11:55.734Z,26.42
2022-08-17T16:14:24.222Z,28.63
2022-08-17T16:16:51.618Z,23.38
2022-08-17T16:19:18.278Z,28.17
2022-08-17T16:21:44.966Z,27.08
2022-08-17T16:24:13.728Z,30.90
2022-08-17T16:26:42.224Z,21.13
2022-08-17T16:29:09.443Z,24.02
2022-08-17T16:31:37.658Z,25.95
2022-08-17T16:34:17.136Z,19.05
2022-08-17T16:36:55.128Z,23.90
2022-08-17T16:39:25.424Z,20.75
2022-08-17T16:41:52.183Z,19.67
2022-08-17T16:44:20.847Z,19.95
2022-08-17T16:46:49.040Z,22.63
2022-08-17T16:49:27.617Z,25.17
2022-08-17T16:52:04.280Z,27.33
2022-08-17T16:54:31.008Z,26.35
2022-08-17T16:56:57.692Z,29.02
2022-08-17T16:59:31.281Z,26.30
2022-08-17T17:02:11.283Z,26.08
2022-08-17T17:04:45.353Z,27.63
2022-08-17T17:07:49.576Z,22.83
2022-08-17T17:10:24.058Z,26.30
2022-08-17T17:13:02.835Z,30.42
2022-08-17T17:15:53.478Z,27.45
2022-08-17T17:18:26.378Z,25.23
2022-08-17T17:20:57.024Z,26.38
2022-08-17T17:23:36.186Z,25.52
2022-08-17T17:26:19.020Z,25.70
2022-08-17T17:29:00.758Z,28.83
2022-08-17T17:31:38.068Z,27.88
2022-08-17T17:34:07.613Z,32.53
2022-08-17T17:36:53.910Z,31.98
2022-08-17T17:39:20.567Z,33.20
2022-08-17T17:41:58.985Z,31.75
2022-08-17T17:44:30.385Z,35.35
2022-08-17T17:49:30.149Z,29.95
2022-08-17T17:52:12.360Z,38.17
2022-08-17T17:55:01.994Z,35.85
2022-08-17T17:57:40.447Z,36.58
2022-08-17T18:00:14.001Z,34.40
2022-08-17T18:03:06.842Z,33.15
2022-08-17T18:05:46.605Z,28.17
2022-08-17T18:08:16.555Z,31.33
2022-08-17T18:10:54.738Z,36.90
2022-08-17T18:13:52.019Z,30.52
2022-08-17T18:16:19.199Z,36.03
2022-08-17T18:18:52.136Z,37.20
2022-08-17T18:21:24.246Z,37.35
2022-08-17T18:24:02.029Z,39.67
2022-08-17T18:26:45.074Z,35.45
2022-08-17T18:29:31.494Z,38.72
2022-08-17T18:32:23.320Z,39.15
2022-08-17T18:35:15.886Z,36.88
2022-08-17T18:37:48.745Z,34.28
2022-08-17T18:40:19.011Z,37.17
2022-08-17T18:42:56.641Z,36.38
2022-08-17T18:45:41.482Z,38.83
2022-08-17T18:48:26.896Z,42.28
2022-08-17T18:51:15.583Z,37.30
2022-08-17T18:53:42.251Z,49.90
2022-08-17T18:56:23.052Z,42.30
2022-08-17T18:59:00.766Z,43.50
2022-08-17T19:01:41.930Z,41.45
2022-08-17T19:04:40.214Z,30.05
2022-08-17T19:07:30.141Z,30.80
2022-08-17T19:10:06.818Z,49.25
2022-08-17T19:12:38.044Z,26.10
2022-08-17T19:15:07.764Z,25.98
2022-08-17T19:17:46.743Z,27.92
2022-08-17T19:20:41.603Z,27.27
2022-08-17T19:23:40.790Z,31.08
2022-08-17T19:26:53.337Z,28.55
2022-08-17T19:29:36.895Z,31.98
2022-08-17T19:32:06.387Z,33.65
2022-08-17T19:34:35.599Z,28.70
2022-08-17T19:37:06.820Z,30.15
2022-08-17T19:39:55.247Z,30.60
2022-08-17T19:42:37.151Z,32.90
2022-08-17T19:45:29.249Z,36.30
2022-08-17T19:48:12.331Z,30.83
2022-08-17T19:50:54.938Z,27.92
2022-08-17T19:54:04.379Z,20.17
2022-08-17T19:56:42.054Z,22.27
2022-08-17T19:59:35.772Z,20.55
2022-08-17T20:02:18.929Z,30.20
2022-08-17T20:04:49.147Z,28.98
2022-08-17T20:07:22.017Z,27.08
2022-08-17T20:10:08.143Z,29.55
2022-08-17T20:12:38.734Z,31.60
2022-08-17T20:15:08.731Z,40.73
2022-08-17T20:17:41.396Z,30.20
2022-08-17T20:20:29.864Z,32.33
2022-08-17T20:23:14.991Z,29.30
2022-08-17T20:25:57.317Z,31.15
2022-08-17T20:28:27.901Z,34.00
2022-08-17T20:30:55.126Z,28.87
2022-08-17T20:33:33.076Z,28.00
2022-08-17T20:36:14.326Z,32.00
2022-08-17T20:38:41.042Z,28.90
2022-08-17T20:41:12.622Z,31.75
2022-08-17T20:43:39.288Z,27.98
2022-08-17T20:46:51.411Z,35.05
2022-08-17T20:49:27.444Z,28.77
2022-08-17T20:52:11.088Z,29.27
2022-08-17T20:54:50.525Z,26.58
2022-08-17T20:57:32.463Z,27.58
2022-08-17T21:00:05.260Z,28.15
2022-08-17T21:02:32.799Z,28.67
2022-08-17T21:05:06.896Z,28.73
2022-08-17T21:07:43.721Z,26.80
2022-08-17T21:10:17.940Z,27.80
2022-08-17T21:13:08.212Z,26.35
2022-08-17T21:15:56.982Z,27.77
2022-08-17T21:18:52.493Z,26.98
2022-08-17T21:21:44.725Z,26.95
2022-08-17T21:24:31.240Z,25.70
2022-08-17T21:27:23.643Z,24.67
2022-08-17T21:30:02.350Z,25.83
2022-08-17T21:32:40.480Z,26.95
2022-08-17T21:35:22.655Z,26.60
2022-08-17T21:37:53.234Z,25.48
2022-08-17T21:40:28.978Z,25.83
2022-08-17T21:43:23.329Z,30.25
2022-08-17T21:46:04.279Z,24.70
2022-08-17T21:48:42.001Z,25.27
2022-08-17T21:51:18.868Z,23.83
2022-08-17T21:53:51.979Z,24.27
2022-08-17T21:56:26.116Z,26.25
2022-08-17T21:59:13.002Z,25.25
2022-08-17T22:01:42.759Z,24.67
2022-08-17T22:04:12.408Z,23.30
2022-08-17T22:06:43.075Z,24.77
2022-08-17T22:09:40.287Z,22.98
2022-08-17T22:12:19.312Z,21.95
2022-08-17T22:14:57.802Z,24.55
2022-08-17T22:17:30.415Z,22.45
2022-08-17T22:20:14.349Z,25.35
2022-08-17T22:23:08.710Z,28.33
2022-08-17T22:25:40.562Z,22.05
2022-08-17T22:28:10.405Z,26.13
2022-08-17T22:30:59.696Z,23.75
2022-08-17T22:33:41.751Z,22.40
2022-08-17T22:36:31.455Z,21.80
2022-08-17T22:39:20.620Z,22.13
2022-08-17T22:41:48.124Z,20.88
2022-08-17T22:44:25.829Z,21.88
2022-08-17T22:47:11.181Z,22.58
2022-08-17T22:50:02.307Z,27.13
2022-08-17T22:53:02.542Z,23.42
2022-08-17T22:55:52.122Z,23.67
2022-08-17T22:58:40.499Z,23.50
2022-08-17T23:01:36.361Z,24.70
2022-08-17T23:04:06.952Z,23.13
2022-08-17T23:06:35.891Z,23.43
2022-08-17T23:09:05.732Z,22.85
2022-08-17T23:11:48.593Z,25.60
2022-08-17T23:14:19.030Z,23.60
2022-08-17T23:16:46.604Z,23.83
2022-08-17T23:19:15.796Z,23.52
2022-08-17T23:21:44.829Z,22.77
2022-08-17T23:24:19.394Z,23.38
2022-08-17T23:26:46.236Z,23.27
2022-08-17T23:29:13.182Z,23.15
2022-08-17T23:31:40.534Z,21.95
2022-08-17T23:34:12.723Z,23.65
2022-08-17T23:36:39.475Z,21.98
2022-08-17T23:39:07.274Z,24.13
2022-08-17T23:41:38.527Z,23.42
2022-08-17T23:44:06.423Z,22.27
2022-08-17T23:46:34.476Z,25.48
2022-08-17T23:49:01.225Z,22.80
2022-08-17T23:51:35.713Z,21.92
2022-08-17T23:54:11.650Z,22.42
2022-08-17T23:56:47.341Z,22.50
2022-08-17T23:59:15.668Z,23.40
